createdAt,value
2022-12-18T00:00:05.992Z,1.50
2022-12-18T00:02:41.677Z,-0.80
2022-12-18T00:05:09.533Z,1.20
2022-12-18T00:07:40.128Z,-0.70
2022-12-18T00:10:08.130Z,1.70
2022-12-18T00:12:38.740Z,-0.90
2022-12-18T00:15:07.010Z,-1.80
2022-12-18T00:17:34.608Z,-0.90
2022-12-18T00:20:02.324Z,-1.20
2022-12-18T00:22:30.065Z,-0.70
2022-12-18T00:24:57.774Z,1.10
2022-12-18T00:27:25.846Z,-1.00
2022-12-18T00:29:53.415Z,-1.00
2022-12-18T00:32:23.255Z,-1.00
2022-12-18T00:34:50.812Z,0.90
2022-12-18T00:37:20.299Z,-1.10
2022-12-18T00:39:54.761Z,1.20
2022-12-18T00:42:40.970Z,-1.70
2022-12-18T00:45:12.556Z,1.30
2022-12-18T00:47:41.110Z,-1.20
2022-12-18T00:50:09.282Z,0.90
2022-12-18T00:52:36.905Z,-1.30
2022-12-18T00:55:06.586Z,-1.30
2022-12-18T00:57:34.295Z,-1.30
2022-12-18T01:00:02.167Z,0.80
2022-12-18T01:02:30.403Z,-1.40
2022-12-18T01:04:58.354Z,-1.50
2022-12-18T01:07:26.120Z,-1.70
2022-12-18T01:09:53.808Z,-1.70
2022-12-18T01:12:21.370Z,0.50
2022-12-18T01:14:51.690Z,0.10
2022-12-18T01:17:19.170Z,0.50
2022-12-18T01:19:47.305Z,-1.60
2022-12-18T01:22:14.936Z,-1.60
2022-12-18T01:24:42.502Z,-1.70
2022-12-18T01:27:10.027Z,-0.80
2022-12-18T01:29:37.649Z,-1.70
2022-12-18T01:32:08.472Z,-0.50
2022-12-18T01:34:43.050Z,-1.60
2022-12-18T01:37:13.507Z,-1.70
2022-12-18T01:39:41.247Z,-2.80
2022-12-18T01:42:21.069Z,-1.70
2022-12-18T01:45:08.032Z,0.40
2022-12-18T01:47:48.530Z,-1.40
2022-12-18T01:50:17.616Z,-1.40
2022-12-18T01:52:59.070Z,0.70
2022-12-18T01:55:30.293Z,-1.30
2022-12-18T01:58:00.858Z,0.50
2022-12-18T02:00:29.762Z,1.20
2022-12-18T02:02:57.936Z,0.70
2022-12-18T02:05:25.612Z,0.10
2022-12-18T02:08:23.873Z,-1.40
2022-12-18T02:11:01.109Z,-1.50
2022-12-18T02:14:04.135Z,-0.70
2022-12-18T02:16:45.115Z,1.10
2022-12-18T02:19:56.251Z,1.10
2022-12-18T02:22:29.831Z,-1.20
2022-12-18T02:25:35.068Z,-1.30
2022-12-18T02:28:07.304Z,-1.30
2022-12-18T02:30:38.845Z,1.10
2022-12-18T02:33:09.592Z,-1.40
2022-12-18T02:35:39.160Z,1.40
2022-12-18T02:38:07.683Z,0.70
2022-12-18T02:40:39.266Z,0.30
2022-12-18T02:43:16.260Z,1.60
2022-12-18T02:45:49.550Z,0.60
2022-12-18T02:48:23.615Z,0.60
2022-12-18T02:51:20.456Z,-1.90
2022-12-18T02:54:01.871Z,-1.30
2022-12-18T02:56:39.685Z,0.40
2022-12-18T02:59:34.792Z,-1.30
2022-12-18T03:02:27.377Z,-1.60
2022-12-18T03:05:13.095Z,-2.40
2022-12-18T03:07:51.711Z,0.70
2022-12-18T03:10:29.351Z,0.00
2022-12-18T03:13:21.715Z,-1.40
2022-12-18T03:15:52.647Z,1.00
2022-12-18T03:18:24.607Z,-2.00
2022-12-18T03:20:56.430Z,0.70
2022-12-18T03:23:28.610Z,0.10
2022-12-18T03:26:07.156Z,1.10
2022-12-18T03:28:42.961Z,-1.50
2022-12-18T03:31:13.846Z,0.80
2022-12-18T03:33:54.933Z,0.80
2022-12-18T03:36:28.790Z,-0.70
2022-12-18T03:38:56.487Z,0.70
2022-12-18T03:41:35.559Z,-1.50
2022-12-18T03:44:30.867Z,0.70
2022-12-18T03:47:27.379Z,0.90
2022-12-18T03:50:14.745Z,-3.50
2022-12-18T03:53:07.635Z,-1.30
2022-12-18T03:55:40.904Z,-1.40
2022-12-18T03:58:11.730Z,0.60
2022-12-18T04:01:02.840Z,0.50
2022-12-18T04:03:36.282Z,1.30
2022-12-18T04:06:06.189Z,1.30
2022-12-18T04:08:35.890Z,-1.10
2022-12-18T04:11:07.313Z,-0.40
2022-12-18T04:13:37.906Z,1.20
2022-12-18T04:16:10.506Z,0.80
2022-12-18T04:18:49.456Z,-2.20
2022-12-18T04:21:17.502Z,0.50
2022-12-18T04:23:45.872Z,0.70
2022-12-18T04:26:17.455Z,1.40
2022-12-18T04:29:05.232Z,1.10
2022-12-18T04:31:33.390Z,-1.10
2022-12-18T04:34:01.436Z,1.20
2022-12-18T04:36:29.726Z,-0.90
2022-12-18T04:38:57.406Z,0.80
2022-12-18T04:41:25.129Z,-0.20
2022-12-18T04:43:54.585Z,0.80
2022-12-18T04:46:22.233Z,1.10
2022-12-18T04:48:49.865Z,-0.60
2022-12-18T04:51:20.836Z,1.70
2022-12-18T04:53:52.231Z,1.00
2022-12-18T04:56:19.686Z,-0.60
2022-12-18T04:58:47.292Z,-0.60
2022-12-18T05:01:19.448Z,1.10
2022-12-18T05:03:47.392Z,-2.30
2022-12-18T05:06:15.251Z,-0.40
2022-12-18T05:08:45.201Z,-0.40
2022-12-18T05:11:18.946Z,1.30
2022-12-18T05:13:46.794Z,-0.40
2022-12-18T05:16:15.391Z,2.10
2022-12-18T05:18:43.776Z,1.50
2022-12-18T05:21:11.337Z,-0.30
2022-12-18T05:23:39.242Z,-0.30
2022-12-18T05:26:08.754Z,1.50
2022-12-18T05:28:37.408Z,1.30
2022-12-18T05:31:06.105Z,1.50
2022-12-18T05:33:35.744Z,-0.50
2022-12-18T05:36:05.666Z,2.00
2022-12-18T05:38:34.891Z,-0.10
2022-12-18T05:41:03.200Z,2.00
2022-12-18T05:43:31.010Z,-0.30
2022-12-18T05:45:58.662Z,1.70
2022-12-18T05:48:26.224Z,2.10
2022-12-18T05:50:53.773Z,2.10
2022-12-18T05:53:21.916Z,1.80
2022-12-18T05:55:49.697Z,0.20
2022-12-18T05:58:17.535Z,2.30
2022-12-18T06:00:49.849Z,0.40
2022-12-18T06:03:17.608Z,0.20
2022-12-18T06:05:46.917Z,1.60
2022-12-18T06:08:14.852Z,0.20
2022-12-18T06:10:42.371Z,2.60
2022-12-18T06:13:10.091Z,0.20
2022-12-18T06:15:38.407Z,1.90
2022-12-18T06:18:06.103Z,1.90
2022-12-18T06:20:34.215Z,1.70
2022-12-18T06:23:04.037Z,1.80
2022-12-18T06:25:31.550Z,2.10
2022-12-18T06:27:59.013Z,1.20
2022-12-18T06:30:27.377Z,2.60
2022-12-18T06:32:56.905Z,0.20
2022-12-18T06:35:24.987Z,2.10
2022-12-18T06:37:52.615Z,2.30
2022-12-18T06:40:20.230Z,1.30
2022-12-18T06:42:47.825Z,2.60
2022-12-18T06:45:16.767Z,1.60
2022-12-18T06:47:44.694Z,0.40
2022-12-18T06:50:13.607Z,-0.30
2022-12-18T06:52:41.284Z,0.60
2022-12-18T06:55:12.351Z,2.00
2022-12-18T06:57:39.922Z,0.30
2022-12-18T07:00:08.407Z,1.80
2022-12-18T07:02:36.486Z,0.40
2022-12-18T07:05:10.675Z,1.10
2022-12-18T07:07:38.711Z,0.40
2022-12-18T07:10:06.641Z,2.10
2022-12-18T07:12:34.239Z,0.40
2022-12-18T07:15:01.812Z,0.70
2022-12-18T07:17:30.537Z,2.90
2022-12-18T07:19:58.084Z,3.00
2022-12-18T07:22:27.067Z,2.70
2022-12-18T07:24:54.783Z,-0.30
2022-12-18T07:27:23.093Z,2.40
2022-12-18T07:29:56.015Z,0.60
2022-12-18T07:32:23.616Z,0.50
2022-12-18T07:34:51.212Z,2.50
2022-12-18T07:37:18.993Z,2.70
2022-12-18T07:39:46.878Z,0.60
2022-12-18T07:42:32.647Z,2.30
2022-12-18T07:45:02.123Z,-0.90
2022-12-18T07:47:59.029Z,0.30
2022-12-18T07:50:31.935Z,3.50
2022-12-18T07:52:59.537Z,2.20
2022-12-18T07:55:27.317Z,0.30
2022-12-18T07:57:59.389Z,2.70
2022-12-18T08:00:28.462Z,2.30
2022-12-18T08:02:56.365Z,2.50
2022-12-18T08:05:27.253Z,0.90
2022-12-18T08:07:55.024Z,2.30
2022-12-18T08:10:26.176Z,0.60
2022-12-18T08:12:53.850Z,2.60
2022-12-18T08:15:21.525Z,1.70
2022-12-18T08:17:49.170Z,1.80
2022-12-18T08:20:18.175Z,2.20
2022-12-18T08:22:46.139Z,0.60
2022-12-18T08:25:13.913Z,2.60
2022-12-18T08:27:44.541Z,3.30
2022-12-18T08:30:12.766Z,1.90
2022-12-18T08:32:41.715Z,0.70
2022-12-18T08:35:09.899Z,2.30
2022-12-18T08:37:41.058Z,0.70
2022-12-18T08:40:13.915Z,0.10
2022-12-18T08:43:02.049Z,0.00
2022-12-18T08:45:29.541Z,2.20
2022-12-18T08:47:57.232Z,1.00
2022-12-18T08:50:24.913Z,3.40
2022-12-18T08:52:52.518Z,2.30
2022-12-18T08:55:20.239Z,2.90
2022-12-18T08:57:51.807Z,1.00
2022-12-18T09:00:19.670Z,3.30
2022-12-18T09:02:47.402Z,0.80
2022-12-18T09:05:17.915Z,2.90
2022-12-18T09:07:45.551Z,2.10
2022-12-18T09:10:13.567Z,3.40
2022-12-18T09:12:43.411Z,0.80
2022-12-18T09:15:14.238Z,3.10
2022-12-18T09:17:42.099Z,1.30
2022-12-18T09:20:10.515Z,3.10
2022-12-18T09:22:40.865Z,0.90
2022-12-18T09:25:08.999Z,2.90
2022-12-18T09:27:41.344Z,0.90
2022-12-18T09:30:09.558Z,0.90
2022-12-18T09:32:37.204Z,1.20
2022-12-18T09:35:10.243Z,2.20
2022-12-18T09:37:37.973Z,1.10
2022-12-18T09:40:06.199Z,3.20
2022-12-18T09:42:33.726Z,1.10
2022-12-18T09:45:02.174Z,1.20
2022-12-18T09:47:39.074Z,3.10
2022-12-18T09:50:30.612Z,3.10
2022-12-18T09:53:03.847Z,1.20
2022-12-18T09:55:47.240Z,2.80
2022-12-18T09:58:22.472Z,1.20
2022-12-18T10:01:13.681Z,1.30
2022-12-18T10:03:46.242Z,2.80
2022-12-18T10:06:48.902Z,2.90
2022-12-18T10:09:40.896Z,3.70
2022-12-18T10:12:17.658Z,1.50
2022-12-18T10:15:14.573Z,2.40
2022-12-18T10:18:00.422Z,1.30
2022-12-18T10:20:50.266Z,1.10
2022-12-18T10:23:35.453Z,1.30
2022-12-18T10:26:08.606Z,1.30
2022-12-18T10:28:40.167Z,3.20
2022-12-18T10:31:14.199Z,3.50
2022-12-18T10:33:42.282Z,1.40
2022-12-18T10:36:09.980Z,3.20
2022-12-18T10:38:38.179Z,1.60
2022-12-18T10:41:29.693Z,3.00
2022-12-18T10:44:24.466Z,1.70
2022-12-18T10:46:57.056Z,1.50
2022-12-18T10:49:28.222Z,3.50
2022-12-18T10:52:18.496Z,1.70
2022-12-18T10:54:56.382Z,1.60
2022-12-18T10:57:39.972Z,0.30
2022-12-18T11:00:32.520Z,3.70
2022-12-18T11:03:00.652Z,1.80
2022-12-18T11:05:28.577Z,3.80
2022-12-18T11:08:02.694Z,1.20
2022-12-18T11:10:40.137Z,4.00
2022-12-18T11:13:45.511Z,3.50
2022-12-18T11:16:22.207Z,3.60
2022-12-18T11:18:55.812Z,3.90
2022-12-18T11:25:36.290Z,0.40
2022-12-18T11:37:38.000Z,2.00
2022-12-18T11:41:01.895Z,3.60
2022-12-18T11:43:55.130Z,2.20
2022-12-18T11:50:45.421Z,0.50
2022-12-18T11:54:20.267Z,4.90
2022-12-18T12:00:13.566Z,3.30
2022-12-18T12:03:24.451Z,0.90
2022-12-18T12:07:00.033Z,2.20
2022-12-18T12:10:29.383Z,2.90
2022-12-18T12:36:12.117Z,2.40
2022-12-18T12:38:51.828Z,2.40
2022-12-18T12:41:45.203Z,2.50
2022-12-18T12:44:43.925Z,0.40
2022-12-18T12:47:22.093Z,1.20
2022-12-18T12:49:53.305Z,1.20
2022-12-18T12:52:36.014Z,2.50
2022-12-18T12:55:17.000Z,4.30
2022-12-18T12:58:13.496Z,2.50
2022-12-18T13:08:22.559Z,2.30
2022-12-18T13:11:11.421Z,4.50
2022-12-18T13:13:52.162Z,3.40
2022-12-18T13:16:22.910Z,2.40
2022-12-18T13:18:57.774Z,2.50
2022-12-18T13:21:29.686Z,3.60
2022-12-18T13:23:58.615Z,4.50
2022-12-18T13:26:29.077Z,3.40
2022-12-18T13:28:59.092Z,2.80
2022-12-18T13:32:26.357Z,4.60
2022-12-18T13:35:28.710Z,2.70
2022-12-18T13:37:59.490Z,2.70
2022-12-18T13:40:49.111Z,3.70
2022-12-18T13:43:22.795Z,2.50
2022-12-18T13:46:20.092Z,4.80
2022-12-18T13:49:03.708Z,2.50
2022-12-18T13:51:34.140Z,2.50
2022-12-18T13:54:07.047Z,4.90
2022-12-18T13:56:35.308Z,2.60
2022-12-18T13:59:23.053Z,2.90
2022-12-18T14:01:56.116Z,2.60
2022-12-18T14:04:36.052Z,2.60
2022-12-18T14:07:15.499Z,3.50
2022-12-18T14:09:50.396Z,2.60
2022-12-18T14:12:41.285Z,2.60
2022-12-18T14:15:27.399Z,2.50
2022-12-18T14:18:00.210Z,4.70
2022-12-18T14:20:32.066Z,4.70
2022-12-18T14:23:01.142Z,3.90
2022-12-18T14:25:30.984Z,2.50
2022-12-18T14:28:07.502Z,2.50
2022-12-18T14:30:40.521Z,5.00
2022-12-18T14:33:19.692Z,2.60
2022-12-18T14:35:57.237Z,2.60
2022-12-18T14:38:30.991Z,4.50
2022-12-18T14:41:00.611Z,2.50
2022-12-18T14:43:30.181Z,2.80
2022-12-18T14:45:58.568Z,2.50
2022-12-18T14:48:40.030Z,2.80
2022-12-18T14:51:15.768Z,2.80
2022-12-18T14:54:05.731Z,5.00
2022-12-18T14:56:37.975Z,4.90
2022-12-18T14:59:23.795Z,3.80
2022-12-18T15:02:20.891Z,4.00
2022-12-18T15:04:48.705Z,2.90
2022-12-18T15:07:24.377Z,3.00
2022-12-18T15:10:13.009Z,2.90
2022-12-18T15:12:51.197Z,3.00
2022-12-18T15:15:45.991Z,3.10
2022-12-18T15:18:18.570Z,4.00
2022-12-18T15:20:49.452Z,5.40
2022-12-18T15:23:24.328Z,5.50
2022-12-18T15:26:02.295Z,3.00
2022-12-18T15:28:37.617Z,3.10
2022-12-18T15:31:16.197Z,3.10
2022-12-18T15:34:08.655Z,5.00
2022-12-18T15:36:37.440Z,3.20
2022-12-18T15:39:06.631Z,4.70
2022-12-18T15:41:36.831Z,3.40
2022-12-18T15:44:24.243Z,3.20
2022-12-18T15:46:51.893Z,3.30
2022-12-18T15:49:19.328Z,3.20
2022-12-18T15:51:53.835Z,5.50
2022-12-18T15:55:00.497Z,3.30
2022-12-18T15:57:28.137Z,4.70
2022-12-18T16:00:00.124Z,3.70
2022-12-18T16:02:29.429Z,3.40
2022-12-18T16:04:57.360Z,3.50
2022-12-18T16:07:28.145Z,3.50
2022-12-18T16:09:58.863Z,4.60
2022-12-18T16:12:27.916Z,3.80
2022-12-18T16:14:55.429Z,6.00
2022-12-18T16:17:22.822Z,3.60
2022-12-18T16:19:50.267Z,5.20
2022-12-18T16:22:22.265Z,3.80
2022-12-18T16:24:50.899Z,4.80
2022-12-18T16:27:21.168Z,3.90
2022-12-18T16:29:49.250Z,4.60
2022-12-18T16:32:20.067Z,4.10
2022-12-18T16:34:47.998Z,4.10
2022-12-18T16:37:18.249Z,4.10
2022-12-18T16:39:45.777Z,5.40
2022-12-18T16:42:20.181Z,5.30
2022-12-18T16:44:49.561Z,4.10
2022-12-18T16:47:17.888Z,6.00
2022-12-18T16:49:46.147Z,4.30
2022-12-18T16:52:14.510Z,3.70
2022-12-18T16:54:41.991Z,4.70
2022-12-18T16:57:14.382Z,4.50
2022-12-18T16:59:42.040Z,5.40
2022-12-18T17:02:24.510Z,4.50
2022-12-18T17:04:58.377Z,4.50
2022-12-18T17:07:27.990Z,6.80
2022-12-18T17:09:55.774Z,6.90
2022-12-18T17:12:23.618Z,6.90
2022-12-18T17:14:51.277Z,7.30
2022-12-18T17:17:21.246Z,6.90
2022-12-18T17:19:49.607Z,4.70
2022-12-18T17:22:17.049Z,7.10
2022-12-18T17:24:47.875Z,4.80
2022-12-18T17:27:15.691Z,4.80
2022-12-18T17:29:48.427Z,6.10
2022-12-18T17:32:17.719Z,5.00
2022-12-18T17:34:49.718Z,6.00
2022-12-18T17:37:17.197Z,7.40
2022-12-18T17:39:44.745Z,6.40
2022-12-18T17:42:15.520Z,6.20
2022-12-18T17:44:44.305Z,5.00
2022-12-18T17:47:13.489Z,5.10
2022-12-18T17:49:41.146Z,5.10
2022-12-18T17:52:08.804Z,5.10
2022-12-18T17:54:39.819Z,7.40
2022-12-18T17:57:08.043Z,5.20
2022-12-18T17:59:38.169Z,7.10
2022-12-18T18:02:11.342Z,5.30
2022-12-18T18:04:40.263Z,7.30
2022-12-18T18:07:07.771Z,6.40
2022-12-18T18:09:35.323Z,5.40
2022-12-18T18:12:21.195Z,5.40
2022-12-18T18:14:48.836Z,5.50
2022-12-18T18:17:16.914Z,6.30
2022-12-18T18:19:45.922Z,5.50
2022-12-18T18:22:17.526Z,5.50
2022-12-18T18:24:46.911Z,7.60
2022-12-18T18:27:15.028Z,7.50
2022-12-18T18:29:42.464Z,5.60
2022-12-18T18:32:13.247Z,5.60
2022-12-18T18:34:43.468Z,5.60
2022-12-18T18:37:12.082Z,5.50
2022-12-18T18:39:39.643Z,6.80
2022-12-18T18:42:07.612Z,5.70
2022-12-18T18:44:35.244Z,6.50
2022-12-18T18:47:04.245Z,5.80
2022-12-18T18:49:34.410Z,6.70
2022-12-18T18:52:02.727Z,7.70
2022-12-18T18:54:31.099Z,6.50
2022-12-18T18:59:48.649Z,6.30
2022-12-18T19:02:17.597Z,7.80
2022-12-18T19:04:46.756Z,7.40
2022-12-18T19:07:19.740Z,8.10
2022-12-18T19:09:59.580Z,7.60
2022-12-18T19:12:53.887Z,6.80
2022-12-18T19:15:25.819Z,8.00
2022-12-18T19:17:53.428Z,3.90
2022-12-18T19:20:21.487Z,7.90
2022-12-18T19:22:55.559Z,6.00
2022-12-18T19:25:39.981Z,8.20
2022-12-18T19:28:21.214Z,6.80
2022-12-18T19:30:56.068Z,6.00
2022-12-18T19:33:44.633Z,8.20
2022-12-18T19:36:12.798Z,8.00
2022-12-18T19:38:42.745Z,6.10
2022-12-18T19:41:14.295Z,6.20
2022-12-18T19:43:43.111Z,7.60
2022-12-18T19:46:14.641Z,6.20
2022-12-18T19:48:44.248Z,8.00
2022-12-18T19:51:16.383Z,6.30
2022-12-18T19:53:45.880Z,6.30
2022-12-18T19:56:16.088Z,6.40
2022-12-18T19:58:44.892Z,6.30
2022-12-18T20:01:16.535Z,6.40
2022-12-18T20:03:52.547Z,8.90
2022-12-18T20:06:29.486Z,6.70
2022-12-18T20:09:00.303Z,6.50
2022-12-18T20:11:30.115Z,6.50
2022-12-18T20:14:01.656Z,8.70
2022-12-18T20:16:29.609Z,6.60
2022-12-18T20:18:58.088Z,6.60
2022-12-18T20:21:25.796Z,8.10
2022-12-18T20:23:54.827Z,6.70
2022-12-18T20:26:23.881Z,8.40
2022-12-18T20:28:51.758Z,6.80
2022-12-18T20:31:19.568Z,6.50
2022-12-18T20:33:52.066Z,6.80
2022-12-18T20:36:28.212Z,8.20
2022-12-18T20:39:00.420Z,7.20
2022-12-18T20:41:38.745Z,6.80
2022-12-18T20:44:22.388Z,7.00
2022-12-18T20:46:57.907Z,9.30
2022-12-18T20:49:26.913Z,6.90
2022-12-18T20:51:56.607Z,8.80
2022-12-18T20:54:26.675Z,7.10
2022-12-18T20:56:55.145Z,9.00
2022-12-18T20:59:25.158Z,9.20
2022-12-18T21:01:53.914Z,8.10
2022-12-18T21:04:22.146Z,7.20
2022-12-18T21:06:55.284Z,7.20
2022-12-18T21:09:28.270Z,7.80
2022-12-18T21:12:24.880Z,9.40
2022-12-18T21:14:54.988Z,7.40
2022-12-18T21:17:28.596Z,10.10
2022-12-18T21:19:57.792Z,10.10
2022-12-18T21:22:25.383Z,8.70
2022-12-18T21:24:52.980Z,7.50
2022-12-18T21:27:20.933Z,9.50
2022-12-18T21:29:57.464Z,7.50
2022-12-18T21:32:25.031Z,9.10
2022-12-18T21:34:55.967Z,9.60
2022-12-18T21:37:23.482Z,7.60
2022-12-18T21:39:51.155Z,9.10
2022-12-18T21:42:37.367Z,9.30
2022-12-18T21:45:05.207Z,7.50
2022-12-18T21:47:32.715Z,7.70
2022-12-18T21:50:00.263Z,7.90
2022-12-18T21:52:31.929Z,7.70
2022-12-18T21:55:07.862Z,7.80
2022-12-18T21:57:37.913Z,7.80
2022-12-18T22:00:07.586Z,9.30
2022-12-18T22:02:40.897Z,7.80
2022-12-18T22:05:08.997Z,7.80
2022-12-18T22:07:36.456Z,7.80
2022-12-18T22:10:04.267Z,7.80
2022-12-18T22:12:43.268Z,8.00
2022-12-18T22:15:21.527Z,10.20
2022-12-18T22:17:50.896Z,10.30
2022-12-18T22:20:19.885Z,8.00
2022-12-18T22:22:48.478Z,8.50
2022-12-18T22:25:15.932Z,8.00
2022-12-18T22:28:03.686Z,8.00
2022-12-18T22:30:31.013Z,8.00
2022-12-18T22:32:58.850Z,8.10
2022-12-18T22:35:26.642Z,8.00
2022-12-18T22:37:54.093Z,9.90
2022-12-18T22:40:25.999Z,8.10
2022-12-18T22:42:54.675Z,8.10
2022-12-18T22:45:22.317Z,8.10
2022-12-18T22:47:50.069Z,8.20
2022-12-18T22:50:17.508Z,9.40
2022-12-18T22:52:44.975Z,8.20
2022-12-18T22:55:12.460Z,8.50
2022-12-18T22:57:41.143Z,8.20
2022-12-18T23:00:15.782Z,8.30
2022-12-18T23:02:45.032Z,8.30
2022-12-18T23:05:15.783Z,9.70
2022-12-18T23:07:43.331Z,8.40
2022-12-18T23:10:11.034Z,8.40
2022-12-18T23:12:38.478Z,8.40
2022-12-18T23:15:06.190Z,10.40
2022-12-18T23:17:33.659Z,8.40
2022-12-18T23:20:01.522Z,9.50
2022-12-18T23:22:30.438Z,9.80
2022-12-18T23:24:57.892Z,9.10
2022-12-18T23:27:25.431Z,8.60
2022-12-18T23:29:52.854Z,8.50
2022-12-18T23:32:22.863Z,10.00
2022-12-18T23:34:50.310Z,10.20
2022-12-18T23:37:35.313Z,8.80
2022-12-18T23:40:05.924Z,8.60
2022-12-18T23:42:33.436Z,8.70
2022-12-18T23:45:00.890Z,9.50
2022-12-18T23:47:31.949Z,8.80
2022-12-18T23:49:59.342Z,9.90
2022-12-18T23:52:27.007Z,11.00
2022-12-18T23:54:55.922Z,10.50
2022-12-18T23:57:23.808Z,9.00
2022-12-18T23:59:54.242Z,9.00
